Jump to content

Qu'avez vous fait ces cinq dernieres minutes ?


Recommended Posts

  • Replies 12.7k
  • Created
  • Last Reply

Top Posters In This Topic

  • gorgorgueu

    2753

  • Erwan

    1816

  • charp

    1080

  • anneso

    651

Top Posters In This Topic

Popular Posts

Pfffff :niarf:   Question, dans les profil il y a "réputation" pourquoi certains sont en négatif? (je ne pense à personne en particulier, suivez mon regard :lapin:) d'autre en positif? c'est du à qu

Si tu veux changer des couches oui :lapin:         Le pire c'est que c'est bien possible ! :D         Avec la gamme complete : chauffe biberon usb, baby phone usb, etc... :frenchy:  

Exactement :respect: je pensais pas du tout à ça :o c'est juste qu'un mec bourré est plus apte à faire une demande en mariage qu'un mec sain, le résultat est juste un peu différent ^^

Posted Images

j ai redemarré mon pc de maniere brutale ... saleté de ZA !! un conseil pour un firewall ? gratuit et en français si possible .

merci :biere:

Link to post
Share on other sites

mon pote est partie, on est allé voire spiderman 2 et on a gouté .

 

merci eagleib :biere: outpost existe en gratuitiel ? et sp2, on peut lui faire confiance :heu:

Link to post
Share on other sites

This is Bora Bora Tower information DELTA recorded at 1818z

Landing rwy 11 / Take-off rwy 11

NTTB 101700Z 07002KT 9999 FEW023 BKN300 23/16 Q1017 WS ALL RWY NOSIG

Transition Level FL050 / Transition Altitude 5000ft

close at 2030Z |english in text please, thanks

Confirm you have information DELTA on initial contact

 

j'ai ouvert NTTB_TWR sur le réseau IVAO ( réseau pour FS a grandeur réelle : controleurs et pilotes )

Link to post
Share on other sites
This is Bora Bora  Tower information DELTA recorded at 1818z

Landing rwy 11 / Take-off rwy 11

NTTB 101700Z 07002KT 9999 FEW023 BKN300 23/16 Q1017 WS ALL RWY NOSIG

Transition Level FL050 / Transition Altitude 5000ft

close at 2030Z |english in text please, thanks

Confirm you have information DELTA on initial contact

 

j'ai ouvert NTTB_TWR sur le réseau IVAO  ( réseau pour FS a grandeur réelle : controle urs et pilotes )

Rien capté :lol:

Link to post
Share on other sites
colombo....vieu mais bien......

 

Moi j'aime bien Columbo c'est terrible !

j'adore comme il coince la personne à la fin.

c'est d'ailleurs sa marque de fabrique... dans le meme style tu as arabesque.

et je viens de manger du filet de perche avec du riz.

Link to post
Share on other sites

Join the conversation

You can post now and register later. If you have an account, sign in now to post with your account.

Guest
Reply to this topic...

×   Pasted as rich text.   Paste as plain text instead

  Only 75 emoji are allowed.

×   Your link has been automatically embedded.   Display as a link instead

×   Your previous content has been restored.   Clear editor

×   You cannot paste images directly. Upload or insert images from URL.

Loading...

×
×
  • Create New...